Flight Track Log - Related Links

Times and Time Zones

All times are in EDT time to prevent confusion due to time zone crossing. See the EJA221 flight status page for this flight to view local times or setup timezone preferences in your user account.


Time Position Orientation Groundspeed Altitude Reporting Facility
EDT Latitude Longitude Course Direction KTS MPH feet Rate Location/Type
Tue 01:29:31 PM 34.1283 -118.5414 221° Southwest 221 254 5,600  Level Los Angeles Center
Tue 01:30:33 PM 34.1600 -118.6053 301° West 257 296 8,700 2,952 Climbing Los Angeles Center
Tue 01:31:35 PM 34.2283 -118.6483 332° Northwest 274 315 11,700 2,516 Climbing Los Angeles Center
Tue 01:32:37 PM 34.3153 -118.6778 344° North 312 359 13,900 1,920 Climbing Los Angeles Center
Tue 01:33:40 PM 34.4136 -118.7150 343° North 360 414 15,700 1,824 Climbing Los Angeles Center
Tue 01:34:42 PM 34.5222 -118.7553 343° North 395 455 17,700 2,129 Climbing Los Angeles Center
Tue 01:35:44 PM 34.6567 -118.8064 343° North 418 481 20,100 1,984 Climbing Los Angeles Center
Tue 01:36:46 PM 34.7719 -118.8508 342° North 430 495 21,800 1,694 Climbing Los Angeles Center
Tue 01:37:48 PM 34.8894 -118.9006 341° North 445 512 23,600 1,694 Climbing Los Angeles Center
Tue 01:38:50 PM 35.0033 -118.9508 340° North 452 520 25,300 1,790 Climbing Los Angeles Center
Tue 01:39:52 PM 35.1500 -119.0164 340° North 466 536 27,300 1,296 Climbing Los Angeles Center
Tue 01:40:55 PM 35.2769 -119.0739 340° North 480 552 28,000 336 Climbing Los Angeles Center
Tue 01:41:57 PM 35.4114 -119.1344 340° North 501 577 28,000  Level Los Angeles Center
Tue 01:42:59 PM 35.5544 -119.1997 340° North 535 616 28,000  Level Los Angeles Center
Tue 01:44:01 PM 35.6922 -119.2631 340° North 534 615 28,000  Level Los Angeles Center
Tue 01:45:19 PM 35.8839 -119.3511 340° North 543 625 28,000  Level Oakland Center
Tue 01:46:20 PM 36.0206 -119.4131 340° North 530 610 28,000  Level Oakland Center
Tue 01:47:22 PM 36.1528 -119.4908 335° Northwest 529 609 28,000  Level Oakland Center
Tue 01:48:23 PM 36.2817 -119.5758 332° Northwest 528 608 28,000  Level Oakland Center
Tue 01:49:25 PM 36.4372 -119.6800 332° Northwest 530 610 28,000  Level Oakland Center
Tue 01:50:27 PM 36.5678 -119.7678 332° Northwest 533 613 28,000  Level Oakland Center
Tue 01:51:28 PM 36.6981 -119.8561 331° Northwest 535 616 28,000  Level Oakland Center
Tue 01:52:30 PM 36.8286 -119.9417 332° Northwest 532 612 28,000  Level Oakland Center
Tue 01:53:31 PM 36.9581 -120.0300 331° Northwest 533 613 28,000  Level Oakland Center
Tue 01:54:33 PM 37.0872 -120.1175 332° Northwest 540 621 28,000  Level Oakland Center
Tue 01:55:34 PM 37.2183 -120.2072 331° Northwest 538 619 28,000 -1,512 Level Oakland Center
Tue 01:56:36 PM 37.3731 -120.3119 332° Northwest 526 605 24,900 -2,916 Descending Oakland Center
Tue 01:57:21 PM 37.4667 -120.3833 329° Northwest 515 593 22,800 -2,400 Descending Northern Cal TRACON
Tue 01:58:21 PM 37.5667 -120.5000 317° Northwest 495 570 20,700 -1,900 Descending Northern Cal TRACON
Tue 01:59:21 PM 37.6667 -120.6000 322° Northwest 482 555 19,000 -1,842 Descending Northern Cal TRACON
Tue 02:00:15 PM 37.7667 -120.7000 322° Northwest 469 540 17,200 -1,750 Descending Northern Cal TRACON
Tue 02:01:21 PM 37.8833 -120.8000 326° Northwest 456 525 15,500 -1,650 Descending Northern Cal TRACON
Tue 02:02:15 PM 37.9667 -120.9000 317° Northwest 443 510 13,900 -1,571 Descending Northern Cal TRACON
Tue 02:02:45 PM 37.9997 -120.9267 328° Northwest 442 509 13,300 -1,435 Descending Oakland Center
Tue 02:03:47 PM 38.0939 -121.0217 322° Northwest 433 498 11,700 -1,610 Descending Oakland Center
Tue 02:04:48 PM 38.2050 -121.1333 322° Northwest 426 490 10,000 -829 Descending Oakland Center
Tue 02:05:50 PM 38.2708 -121.2333 310° West 380 437 10,000  Level Oakland Center
Tue 02:07:09 PM 38.3500 -121.3667 307° West 365 420 10,000  Level Northern Cal TRACON
Tue 02:08:15 PM 38.4167 -121.5000 303° West 364 419 10,000 -400 Level Northern Cal TRACON
Tue 02:09:09 PM 38.4667 -121.5667 314° West 316 364 9,200 -1,368 Descending Northern Cal TRACON
Tue 02:10:09 PM 38.5333 -121.6167 330° Northwest 297 342 7,400 -1,667 Descending Northern Cal TRACON
Tue 02:10:57 PM 38.5839 -121.6572 328° Northwest 288 331 6,200 -1,636 Descending Oakland Center
Tue 02:11:59 PM 38.6572 -121.6756 349° North 271 312 4,400 -1,463 Descending Oakland Center
Tue 02:13:00 PM 38.7292 -121.6742 North 255 293 3,200 -1,171 Descending Oakland Center
Tue 02:14:02 PM 38.7781 -121.6497 21° North 208 239 2,000 -1,065 Descending Oakland Center
Tue 02:15:04 PM 38.7500 -121.6000 126° Southeast 153 176 1,000 -836 Descending Northern Cal TRACON
Tue 02:16:04 PM 38.7167 -121.6000 180° South 116 133 300 6,196 Descending Northern Cal TRACON
Tue 02:18:08 PM 38.6917 -121.5964 174° South 74 85 20,000 6,389 Climbing Oakland Center
Tue 02:19:09 PM 38.6844 -121.5972 185° South 43 49 20,000  Level Oakland Center
Tue 02:20:11 PM 38.6817 -121.5978 189° South 30 35 20,000  Level Oakland Center
Tue 02:21:12 PM 38.6803 -121.5964 142° Southeast 26 30 20,000  Level Oakland Center

Login

Don't have an account? Register now (free) for customized features, flight alerts, and more!